createdAt,value
2022-09-11T00:00:21.772Z,24.89
2022-09-11T00:03:25.134Z,24.90
2022-09-11T00:06:30.661Z,24.76
2022-09-11T00:09:33.996Z,24.83
2022-09-11T00:12:37.248Z,24.99
2022-09-11T00:15:41.761Z,25.13
2022-09-11T00:18:44.956Z,24.86
2022-09-11T00:21:51.068Z,25.13
2022-09-11T00:24:55.111Z,25.05
2022-09-11T00:27:58.313Z,24.79
2022-09-11T00:31:03.520Z,25.03
2022-09-11T00:34:08.077Z,25.03
2022-09-11T00:37:12.714Z,25.06
2022-09-11T00:40:16.604Z,25.12
2022-09-11T00:43:20.225Z,25.18
2022-09-11T00:46:26.245Z,24.94
2022-09-11T00:49:34.123Z,24.69
2022-09-11T00:52:42.418Z,24.73
2022-09-11T00:55:52.320Z,24.60
2022-09-11T00:58:57.203Z,24.76
2022-09-11T01:02:00.779Z,24.64
2022-09-11T01:05:05.064Z,24.44
2022-09-11T01:08:10.534Z,24.48
2022-09-11T01:11:27.639Z,24.52
2022-09-11T01:14:43.112Z,24.74
2022-09-11T01:17:55.324Z,24.71
2022-09-11T01:21:17.587Z,24.50
2022-09-11T01:24:54.611Z,24.35
2022-09-11T01:28:01.347Z,24.73
2022-09-11T01:31:10.347Z,24.67
2022-09-11T01:34:23.017Z,24.69
2022-09-11T01:37:32.643Z,24.92
2022-09-11T01:40:45.931Z,25.06
2022-09-11T01:43:56.792Z,25.07
2022-09-11T01:47:00.451Z,25.06
2022-09-11T01:50:07.189Z,25.23
2022-09-11T01:53:14.256Z,25.18
2022-09-11T01:56:22.438Z,25.25
2022-09-11T01:59:35.180Z,25.13
2022-09-11T02:02:43.280Z,25.21
2022-09-11T02:05:53.289Z,25.20
2022-09-11T02:09:02.791Z,25.10
2022-09-11T02:12:12.460Z,25.06
2022-09-11T02:15:18.976Z,25.06
2022-09-11T02:18:27.022Z,24.95
2022-09-11T02:21:31.088Z,24.48
2022-09-11T02:24:34.791Z,24.66
2022-09-11T02:27:38.036Z,24.46
2022-09-11T02:30:45.090Z,24.11
2022-09-11T02:33:49.004Z,24.16
2022-09-11T02:37:08.108Z,23.85
2022-09-11T02:40:27.608Z,23.65
2022-09-11T02:43:47.978Z,23.77
2022-09-11T02:47:01.061Z,23.62
2022-09-11T02:50:11.860Z,23.64
2022-09-11T02:53:25.246Z,23.84
2022-09-11T02:56:37.013Z,23.71
2022-09-11T02:59:45.099Z,23.64
2022-09-11T03:02:49.879Z,23.40
2022-09-11T03:05:53.323Z,23.34
2022-09-11T03:08:56.885Z,23.36
2022-09-11T03:12:00.167Z,23.38
2022-09-11T03:15:03.543Z,23.62
2022-09-11T03:18:08.316Z,23.54
2022-09-11T03:21:12.281Z,23.77
2022-09-11T03:24:17.210Z,23.40
2022-09-11T03:27:21.691Z,23.21
2022-09-11T03:30:24.997Z,23.32
2022-09-11T03:33:29.887Z,23.37
2022-09-11T03:36:34.491Z,23.31
2022-09-11T03:39:37.817Z,23.13
2022-09-11T03:42:41.159Z,23.08
2022-09-11T03:45:44.869Z,22.96
2022-09-11T03:48:52.564Z,23.07
2022-09-11T03:51:57.729Z,23.12
2022-09-11T03:55:01.454Z,23.01
2022-09-11T03:58:07.236Z,23.22
2022-09-11T04:01:19.534Z,22.80
2022-09-11T04:04:26.023Z,23.19
2022-09-11T04:07:31.586Z,22.89
2022-09-11T04:10:35.391Z,22.98
2022-09-11T04:13:42.205Z,22.99
2022-09-11T04:16:48.941Z,22.97
2022-09-11T04:19:55.079Z,22.93
2022-09-11T04:22:58.452Z,23.33
2022-09-11T04:26:01.841Z,23.50
2022-09-11T04:29:05.182Z,23.47
2022-09-11T04:32:08.654Z,23.53
2022-09-11T04:35:14.363Z,23.56
2022-09-11T04:38:25.963Z,23.70
2022-09-11T04:41:29.888Z,23.74
2022-09-11T04:44:36.253Z,23.77
2022-09-11T04:47:40.051Z,23.70
2022-09-11T04:50:48.740Z,23.91
2022-09-11T04:54:00.748Z,23.77
2022-09-11T04:57:10.914Z,23.55
2022-09-11T05:00:16.380Z,23.64
2022-09-11T05:03:21.043Z,23.95
2022-09-11T05:06:25.722Z,24.08
2022-09-11T05:09:29.969Z,23.93
2022-09-11T05:12:34.759Z,24.12
2022-09-11T05:15:38.564Z,24.49
2022-09-11T05:18:43.409Z,24.52
2022-09-11T05:21:49.351Z,24.78
2022-09-11T05:24:52.735Z,25.27
2022-09-11T05:27:55.993Z,25.65
2022-09-11T05:31:00.067Z,25.51
2022-09-11T05:34:03.668Z,25.84
2022-09-11T05:37:08.364Z,26.10
2022-09-11T05:40:17.520Z,26.02
2022-09-11T05:43:22.508Z,25.61
2022-09-11T05:46:27.239Z,26.20
2022-09-11T05:49:34.405Z,26.68
2022-09-11T05:52:40.138Z,26.66
2022-09-11T05:55:44.122Z,26.38
2022-09-11T05:58:48.706Z,26.28
2022-09-11T06:01:52.798Z,26.75
2022-09-11T06:05:07.188Z,27.19
2022-09-11T06:08:13.026Z,26.49
2022-09-11T06:11:18.205Z,27.43
2022-09-11T06:14:22.336Z,27.26
2022-09-11T06:17:28.411Z,27.51
2022-09-11T06:20:31.670Z,27.99
2022-09-11T06:23:39.946Z,27.48
2022-09-11T06:26:46.610Z,27.76
2022-09-11T06:29:50.902Z,27.68
2022-09-11T06:32:56.659Z,28.27
2022-09-11T06:36:01.584Z,27.98
2022-09-11T06:39:06.326Z,27.89
2022-09-11T06:42:11.451Z,28.24
2022-09-11T06:45:15.159Z,28.01
2022-09-11T06:48:20.160Z,27.22
2022-09-11T06:51:24.576Z,27.46
2022-09-11T06:54:30.675Z,27.72
2022-09-11T06:57:39.864Z,27.51
2022-09-11T07:00:49.331Z,27.50
2022-09-11T07:03:54.474Z,27.82
2022-09-11T07:06:58.529Z,28.03
2022-09-11T07:10:04.432Z,28.09
2022-09-11T07:13:09.001Z,27.84
2022-09-11T07:16:13.757Z,27.64
2022-09-11T07:19:19.639Z,27.94
2022-09-11T07:22:22.923Z,28.03
2022-09-11T07:25:30.624Z,28.62
2022-09-11T07:28:34.526Z,28.87
2022-09-11T07:31:40.224Z,29.16
2022-09-11T07:34:43.599Z,28.67
2022-09-11T07:37:50.753Z,28.61
2022-09-11T07:40:57.136Z,28.47
2022-09-11T07:44:01.428Z,28.72
2022-09-11T07:47:06.743Z,28.81
2022-09-11T07:50:15.947Z,29.39
2022-09-11T07:53:20.131Z,29.18
2022-09-11T07:56:26.527Z,28.72
2022-09-11T07:59:31.091Z,29.11
2022-09-11T08:02:35.091Z,29.30
2022-09-11T08:05:38.350Z,29.26
2022-09-11T08:08:43.627Z,29.60
2022-09-11T08:11:49.618Z,29.78
2022-09-11T08:14:54.808Z,30.01
2022-09-11T08:17:59.660Z,29.77
2022-09-11T08:21:04.613Z,29.96
2022-09-11T08:24:08.240Z,30.37
2022-09-11T08:27:13.573Z,29.47
2022-09-11T08:30:18.971Z,30.13
2022-09-11T08:33:22.472Z,30.28
2022-09-11T08:36:25.973Z,29.51
2022-09-11T08:39:29.479Z,30.13
2022-09-11T08:42:37.847Z,29.64
2022-09-11T08:45:41.440Z,30.31
2022-09-11T08:48:54.698Z,30.68
2022-09-11T08:52:02.252Z,31.00
2022-09-11T08:55:11.001Z,30.80
2022-09-11T08:58:23.973Z,30.98
2022-09-11T09:01:36.143Z,30.73
2022-09-11T09:05:01.052Z,30.58
2022-09-11T09:08:41.985Z,31.05
2022-09-11T09:11:56.925Z,30.97
2022-09-11T09:15:33.334Z,31.29
2022-09-11T09:18:41.940Z,31.20
2022-09-11T09:21:50.860Z,30.88
2022-09-11T09:25:00.629Z,30.73
2022-09-11T09:28:12.539Z,30.94
2022-09-11T09:31:22.140Z,30.96
2022-09-11T09:34:31.465Z,31.40
2022-09-11T09:37:35.215Z,31.29
2022-09-11T09:40:39.928Z,31.00
2022-09-11T09:43:56.245Z,31.77
2022-09-11T09:47:00.888Z,32.27
2022-09-11T09:50:04.851Z,31.49
2022-09-11T09:53:17.936Z,32.35
2022-09-11T09:56:23.873Z,32.54
2022-09-11T09:59:35.514Z,32.63
2022-09-11T10:02:42.967Z,32.81
2022-09-11T10:05:53.492Z,32.37
2022-09-11T10:09:01.373Z,32.52
2022-09-11T10:12:08.931Z,31.89
2022-09-11T10:15:22.541Z,32.27
2022-09-11T10:18:37.900Z,32.38
2022-09-11T10:21:41.029Z,32.46
2022-09-11T10:24:44.331Z,32.37
2022-09-11T10:27:56.333Z,32.80
2022-09-11T10:31:02.552Z,33.02
2022-09-11T10:34:07.637Z,32.55
2022-09-11T10:37:25.382Z,32.37
2022-09-11T10:40:28.796Z,32.04
2022-09-11T10:43:37.888Z,32.25
2022-09-11T10:46:43.182Z,32.44
2022-09-11T10:49:48.115Z,32.55
2022-09-11T10:53:00.121Z,32.85
2022-09-11T10:56:06.058Z,32.24
2022-09-11T10:59:23.568Z,32.88
2022-09-11T11:02:31.760Z,32.57
2022-09-11T11:05:48.000Z,32.59
2022-09-11T11:09:11.145Z,32.77
2022-09-11T11:12:32.782Z,32.79
2022-09-11T11:15:43.838Z,32.88
2022-09-11T11:19:01.310Z,33.18
2022-09-11T11:22:21.294Z,33.17
2022-09-11T11:25:31.429Z,33.45
2022-09-11T11:28:51.598Z,32.57
2022-09-11T11:32:09.684Z,33.24
2022-09-11T11:35:26.037Z,33.21
2022-09-11T11:38:35.911Z,33.43
2022-09-11T11:41:45.029Z,33.47
2022-09-11T11:44:54.423Z,33.68
2022-09-11T11:47:58.260Z,34.10
2022-09-11T11:51:06.216Z,33.51
2022-09-11T11:54:19.173Z,33.94
2022-09-11T11:57:27.573Z,34.52
2022-09-11T12:00:35.475Z,34.59
2022-09-11T12:03:43.919Z,34.27
2022-09-11T12:06:47.247Z,33.99
2022-09-11T12:09:54.165Z,33.48
2022-09-11T12:13:01.700Z,33.08
2022-09-11T12:16:17.423Z,32.65
2022-09-11T12:19:23.777Z,32.46
2022-09-11T12:22:39.173Z,32.67
2022-09-11T12:26:05.204Z,32.56
2022-09-11T12:29:51.762Z,32.50
2022-09-11T12:32:57.191Z,33.00
2022-09-11T12:36:01.217Z,32.94
2022-09-11T12:39:16.174Z,32.27
2022-09-11T12:42:56.810Z,32.15
2022-09-11T12:46:00.269Z,32.44
2022-09-11T12:49:22.029Z,32.29
2022-09-11T12:52:42.874Z,31.93
2022-09-11T12:55:56.005Z,31.83
2022-09-11T12:59:04.904Z,31.50
2022-09-11T13:02:26.801Z,31.31
2022-09-11T13:05:34.735Z,31.74
2022-09-11T13:08:46.268Z,31.64
2022-09-11T13:11:51.197Z,31.22
2022-09-11T13:15:02.542Z,31.48
2022-09-11T13:18:31.720Z,31.48
2022-09-11T13:21:38.145Z,31.16
2022-09-11T13:24:41.461Z,31.36
2022-09-11T13:27:47.868Z,31.66
2022-09-11T13:31:05.295Z,32.18
2022-09-11T13:34:14.998Z,32.15
2022-09-11T13:37:36.588Z,32.37
2022-09-11T13:40:44.616Z,32.20
2022-09-11T13:43:50.893Z,32.43
2022-09-11T13:46:56.354Z,32.04
2022-09-11T13:50:03.273Z,31.55
2022-09-11T13:53:06.801Z,31.65
2022-09-11T13:56:21.589Z,31.59
2022-09-11T13:59:46.455Z,31.48
2022-09-11T14:02:58.659Z,31.98
2022-09-11T14:06:06.631Z,31.90
2022-09-11T14:09:19.412Z,32.41
2022-09-11T14:12:23.154Z,32.31
2022-09-11T14:15:35.258Z,31.70
2022-09-11T14:18:45.558Z,31.52
2022-09-11T14:21:50.763Z,31.33
2022-09-11T14:25:03.947Z,31.17
2022-09-11T14:28:07.658Z,31.20
2022-09-11T14:31:13.381Z,30.93
2022-09-11T14:34:19.772Z,31.21
2022-09-11T14:37:23.768Z,31.14
2022-09-11T14:40:27.307Z,31.14
2022-09-11T14:43:33.261Z,31.12
2022-09-11T14:46:37.107Z,31.33
2022-09-11T14:49:41.912Z,31.52
2022-09-11T14:52:46.523Z,31.01
2022-09-11T14:55:51.516Z,30.98
2022-09-11T14:58:55.176Z,30.91
2022-09-11T15:01:59.719Z,31.31
2022-09-11T15:05:04.401Z,31.40
2022-09-11T15:08:07.769Z,31.77
2022-09-11T15:11:11.034Z,31.60
2022-09-11T15:14:27.808Z,31.72
2022-09-11T15:17:36.500Z,31.52
2022-09-11T15:20:41.203Z,31.85
2022-09-11T15:23:50.108Z,31.73
2022-09-11T15:26:54.009Z,31.76
2022-09-11T15:29:57.442Z,31.89
2022-09-11T15:33:00.680Z,31.37
2022-09-11T15:36:06.880Z,31.54
2022-09-11T15:39:14.482Z,31.50
2022-09-11T15:42:17.901Z,31.60
2022-09-11T15:45:21.195Z,31.42
2022-09-11T15:48:24.502Z,31.44
2022-09-11T15:51:29.878Z,31.56
2022-09-11T15:54:33.154Z,31.63
2022-09-11T15:57:36.904Z,31.28
2022-09-11T16:00:40.167Z,31.27
2022-09-11T16:03:43.483Z,31.21
2022-09-11T16:06:49.912Z,30.89
2022-09-11T16:09:53.509Z,30.72
2022-09-11T16:12:58.973Z,30.48
2022-09-11T16:16:04.200Z,30.07
2022-09-11T16:19:07.592Z,29.88
2022-09-11T16:22:12.351Z,29.87
2022-09-11T16:25:16.143Z,29.69
2022-09-11T16:28:19.473Z,29.43
2022-09-11T16:31:22.878Z,29.40
2022-09-11T16:34:26.248Z,29.33
2022-09-11T16:37:32.897Z,29.33
2022-09-11T16:40:36.679Z,29.18
2022-09-11T16:43:41.232Z,29.24
2022-09-11T16:46:45.318Z,29.01
2022-09-11T16:53:13.981Z,28.94
2022-09-11T16:56:19.730Z,29.01
2022-09-11T16:59:23.050Z,28.84
2022-09-11T17:02:26.599Z,28.67
2022-09-11T17:05:29.908Z,28.46
2022-09-11T17:08:35.125Z,28.62
2022-09-11T17:11:38.508Z,28.62
2022-09-11T17:14:41.816Z,28.51
2022-09-11T17:17:45.052Z,28.24
2022-09-11T17:20:48.600Z,28.39
2022-09-11T17:23:54.615Z,28.37
2022-09-11T17:26:58.102Z,28.27
2022-09-11T17:30:01.533Z,28.44
2022-09-11T17:33:05.048Z,28.29
2022-09-11T17:36:10.801Z,28.49
2022-09-11T17:39:15.503Z,28.64
2022-09-11T17:42:18.736Z,28.62
2022-09-11T17:45:23.213Z,28.34
2022-09-11T17:48:26.616Z,28.28
2022-09-11T17:51:30.024Z,27.62
2022-09-11T17:54:34.845Z,27.33
2022-09-11T17:57:38.187Z,27.27
2022-09-11T18:00:41.542Z,26.91
2022-09-11T18:03:49.367Z,26.84
2022-09-11T18:06:55.789Z,26.23
2022-09-11T18:10:00.498Z,25.90
2022-09-11T18:13:03.759Z,25.81
2022-09-11T18:16:11.381Z,25.89
2022-09-11T18:19:16.576Z,25.54
2022-09-11T18:22:20.009Z,25.75
2022-09-11T18:25:26.134Z,25.37
2022-09-11T18:28:29.929Z,25.55
2022-09-11T18:31:39.940Z,24.68
2022-09-11T18:34:43.536Z,24.18
2022-09-11T18:37:46.781Z,24.34
2022-09-11T18:41:00.827Z,24.47
2022-09-11T18:44:08.328Z,24.58
2022-09-11T18:47:11.495Z,24.73
2022-09-11T18:50:14.784Z,25.05
2022-09-11T18:53:18.281Z,25.17
2022-09-11T18:56:24.296Z,24.89
2022-09-11T18:59:27.690Z,25.05
2022-09-11T19:02:30.891Z,25.37
2022-09-11T19:05:34.462Z,25.26
2022-09-11T19:08:38.784Z,23.88
2022-09-11T19:11:44.233Z,24.31
2022-09-11T19:14:49.204Z,24.13
2022-09-11T19:17:55.383Z,23.84
2022-09-11T19:21:00.375Z,23.86
2022-09-11T19:24:04.205Z,23.47
2022-09-11T19:27:08.860Z,23.21
2022-09-11T19:30:13.794Z,23.49
2022-09-11T19:33:17.061Z,23.70
2022-09-11T19:36:22.118Z,23.66
2022-09-11T19:39:26.852Z,23.77
2022-09-11T19:42:32.576Z,23.23
2022-09-11T19:45:35.851Z,23.04
2022-09-11T19:48:40.037Z,23.08
2022-09-11T19:51:45.055Z,23.08
2022-09-11T19:54:48.265Z,22.89
2022-09-11T19:57:52.973Z,22.73
2022-09-11T20:00:56.416Z,23.13
2022-09-11T20:04:01.805Z,22.49
2022-09-11T20:07:05.731Z,22.43
2022-09-11T20:10:10.980Z,22.27
2022-09-11T20:13:17.192Z,22.38
2022-09-11T20:16:23.590Z,22.54
2022-09-11T20:19:27.501Z,22.73
2022-09-11T20:22:30.973Z,22.62
2022-09-11T20:25:34.246Z,22.59
2022-09-11T20:28:39.710Z,22.34
2022-09-11T20:31:48.206Z,22.78
2022-09-11T20:34:52.465Z,22.35
2022-09-11T20:37:56.810Z,22.59
2022-09-11T20:41:00.694Z,22.81
2022-09-11T20:44:13.473Z,22.57
2022-09-11T20:47:17.236Z,22.42
2022-09-11T20:50:20.509Z,22.44
2022-09-11T20:53:23.908Z,22.15
2022-09-11T20:56:27.223Z,22.46
2022-09-11T20:59:31.923Z,22.73
2022-09-11T21:02:35.854Z,22.62
2022-09-11T21:05:39.697Z,22.78
2022-09-11T21:08:44.417Z,22.56
2022-09-11T21:11:48.126Z,22.50
2022-09-11T21:14:53.014Z,22.60
2022-09-11T21:17:57.118Z,22.67
2022-09-11T21:21:00.607Z,22.55
2022-09-11T21:24:05.756Z,22.96
2022-09-11T21:27:09.268Z,22.87
2022-09-11T21:30:15.231Z,23.21
2022-09-11T21:33:19.167Z,22.78
2022-09-11T21:36:22.544Z,22.91
2022-09-11T21:39:25.778Z,23.20
2022-09-11T21:42:29.054Z,23.23
2022-09-11T21:45:33.817Z,23.12
2022-09-11T21:48:38.612Z,23.31
2022-09-11T21:51:41.968Z,23.35
2022-09-11T21:54:45.272Z,23.32
2022-09-11T21:57:48.573Z,23.43
2022-09-11T22:00:53.395Z,23.49
2022-09-11T22:03:56.774Z,23.20
2022-09-11T22:07:00.477Z,23.51
2022-09-11T22:10:04.542Z,23.37
2022-09-11T22:13:07.869Z,23.21
2022-09-11T22:16:14.714Z,23.49
2022-09-11T22:19:18.133Z,23.43
2022-09-11T22:22:21.325Z,23.57
2022-09-11T22:25:24.631Z,23.24
2022-09-11T22:28:28.483Z,23.22
2022-09-11T22:31:33.299Z,23.11
2022-09-11T22:34:37.613Z,22.90
2022-09-11T22:37:40.868Z,22.82
2022-09-11T22:40:44.178Z,22.28
2022-09-11T22:43:50.144Z,22.67
2022-09-11T22:46:54.945Z,22.55
2022-09-11T22:49:58.216Z,22.59
2022-09-11T22:53:01.533Z,22.53
2022-09-11T22:56:04.804Z,22.13
2022-09-11T22:59:08.227Z,22.25
2022-09-11T23:02:13.636Z,22.00
2022-09-11T23:05:34.453Z,22.01
2022-09-11T23:08:39.573Z,21.86
2022-09-11T23:11:42.835Z,21.71
2022-09-11T23:14:46.136Z,21.83
2022-09-11T23:17:50.892Z,21.81
2022-09-11T23:20:54.774Z,21.69
2022-09-11T23:23:59.462Z,21.42
2022-09-11T23:27:02.689Z,21.77
2022-09-11T23:30:06.623Z,21.88
2022-09-11T23:33:11.908Z,21.82
2022-09-11T23:36:16.973Z,21.67
2022-09-11T23:39:20.253Z,21.54
2022-09-11T23:42:24.579Z,21.71
2022-09-11T23:45:27.930Z,21.29
2022-09-11T23:48:32.947Z,21.30
2022-09-11T23:51:36.225Z,21.52
2022-09-11T23:54:39.551Z,21.74
2022-09-11T23:57:42.847Z,21.49
